<?xml version="1.0" encoding="UTF-8" standalone="no" ?>
<gpx xmlns="http://www.topografix.com/GPX/1/1" xmlns:xsi="http://www.w3.org/2001/XMLSchema-instance" xsi:schemaLocation="http://www.topografix.com/GPX/1/1 http://www.topografix.com/GPX/1/1/gpx.xsd" version="1.1" creator="VisuGPX - https://www.visugpx.com">
  <metadata>
    <name>StCass Vourey Rives 36km 600m</name>
  </metadata>
  <trk>
    <name><![CDATA[St Cass Vour Rives35K 500m 2021]]></name>
    <extensions>
      <line xmlns="http://www.topografix.com/GPX/gpx_style/0/2">
        <color>0000FF</color>
        <width>4</width>
      </line>
    </extensions>
    <trkseg>
      <trkpt lat="45.36074" lon="5.55117">
        <ele>358.23</ele>
        <time>2021-04-25T08:12:29Z</time>
      </trkpt>
      <trkpt lat="45.36074" lon="5.55117">
        <ele>358.23</ele>
        <time>2021-04-25T08:12:29Z</time>
      </trkpt>
      <trkpt lat="45.36076" lon="5.55118">
        <ele>359.19</ele>
        <time>2021-04-25T08:12:39Z</time>
      </trkpt>
      <trkpt lat="45.36075" lon="5.55117">
        <ele>359.19</ele>
        <time>2021-04-25T08:12:49Z</time>
      </trkpt>
      <trkpt lat="45.36075" lon="5.55116">
        <ele>359.19</ele>
        <time>2021-04-25T08:12:59Z</time>
      </trkpt>
      <trkpt lat="45.36076" lon="5.55117">
        <ele>359.19</ele>
        <time>2021-04-25T08:13:09Z</time>
      </trkpt>
      <trkpt lat="45.36076" lon="5.55117">
        <ele>359.67</ele>
        <time>2021-04-25T08:13:19Z</time>
      </trkpt>
      <trkpt lat="45.36076" lon="5.55118">
        <ele>359.67</ele>
        <time>2021-04-25T08:13:29Z</time>
      </trkpt>
      <trkpt lat="45.36077" lon="5.55118">
        <ele>359.19</ele>
        <time>2021-04-25T08:13:39Z</time>
      </trkpt>
      <trkpt lat="45.36077" lon="5.55117">
        <ele>359.19</ele>
        <time>2021-04-25T08:13:49Z</time>
      </trkpt>
      <trkpt lat="45.36069" lon="5.5513">
        <ele>359.67</ele>
        <time>2021-04-25T08:13:59Z</time>
      </trkpt>
      <trkpt lat="45.36052" lon="5.55144">
        <ele>360.15</ele>
        <time>2021-04-25T08:14:09Z</time>
      </trkpt>
      <trkpt lat="45.36027" lon="5.55163">
        <ele>359.67</ele>
        <time>2021-04-25T08:14:19Z</time>
      </trkpt>
      <trkpt lat="45.36006" lon="5.55189">
        <ele>360.63</ele>
        <time>2021-04-25T08:14:29Z</time>
      </trkpt>
      <trkpt lat="45.36013" lon="5.55229">
        <ele>361.11</ele>
        <time>2021-04-25T08:14:39Z</time>
      </trkpt>
      <trkpt lat="45.36018" lon="5.55274">
        <ele>361.11</ele>
        <time>2021-04-25T08:14:49Z</time>
      </trkpt>
      <trkpt lat="45.3602" lon="5.55284">
        <ele>361.59</ele>
        <time>2021-04-25T08:14:59Z</time>
      </trkpt>
      <trkpt lat="45.36021" lon="5.55292">
        <ele>361.59</ele>
        <time>2021-04-25T08:15:09Z</time>
      </trkpt>
      <trkpt lat="45.36024" lon="5.55339">
        <ele>361.11</ele>
        <time>2021-04-25T08:15:19Z</time>
      </trkpt>
    </trkseg>
  </trk>
</gpx>